Terminal Aerodrome Forecast
Issued by NWS

Home | Current Version | Previous Version | Text Only | Print | Product List | Glossary On
Versions: 1 2 3 4 5 6 7 8 9 10 11 12 13 14
000
FTUS44 KEPZ 282300
TAFDMN
TAF
KDMN 282333Z 2900/2924 VRB04KT P6SM VCTS BKN080CB BKN250
      TEMPO 2900/2903 VRB25G35KT 3SM TSRA SCT050 BKN070CB OVC090
     FM290300 VRB06KT P6SM FEW080 SCT120 BKN250
     FM292100 23007KT P6SM VCTS SCT080CB SCT120=

USA.gov is the U.S. government's official web portal to all federal, state and local government web resources and services.